createdAt,value
2018-11-27T00:00:14.571Z,85.26
2018-11-27T00:01:14.589Z,86.20
2018-11-27T00:02:14.638Z,86.31
2018-11-27T00:03:14.662Z,85.26
2018-11-27T00:04:14.481Z,85.16
2018-11-27T00:05:14.592Z,84.95
2018-11-27T00:06:14.599Z,85.89
2018-11-27T00:07:14.497Z,85.99
2018-11-27T00:08:14.402Z,86.20
2018-11-27T00:09:15.611Z,85.89
2018-11-27T00:10:14.522Z,86.04
2018-11-27T00:11:14.429Z,86.24
2018-11-27T00:12:14.338Z,85.99
2018-11-27T00:14:24.853Z,85.89
2018-11-27T00:15:24.626Z,84.99
2018-11-27T00:16:24.623Z,85.51
2018-11-27T00:17:24.617Z,84.99
2018-11-27T00:18:24.675Z,86.24
2018-11-27T00:19:24.656Z,86.04
2018-11-27T00:20:25.228Z,86.04
2018-11-27T00:21:24.617Z,85.61
2018-11-27T00:22:24.437Z,85.41
2018-11-27T00:23:24.613Z,86.24
2018-11-27T00:24:24.621Z,85.51
2018-11-27T00:25:24.468Z,85.61
2018-11-27T00:26:24.622Z,85.61
2018-11-27T00:27:24.602Z,85.41
2018-11-27T00:29:36.649Z,85.86
2018-11-27T00:30:36.272Z,85.30
2018-11-27T00:31:36.181Z,85.82
2018-11-27T00:32:36.096Z,85.97
2018-11-27T00:33:35.994Z,85.65
2018-11-27T00:34:36.198Z,85.44
2018-11-27T00:35:36.422Z,85.55
2018-11-27T00:36:36.008Z,85.65
2018-11-27T00:37:36.220Z,85.65
2018-11-27T00:38:36.147Z,85.44
2018-11-27T00:39:36.041Z,85.55
2018-11-27T00:40:36.558Z,85.55
2018-11-27T00:41:36.156Z,85.65
2018-11-27T00:42:36.069Z,85.44
2018-11-27T00:44:58.730Z,86.38
2018-11-27T00:45:58.672Z,85.06
2018-11-27T00:46:58.498Z,85.38
2018-11-27T00:47:58.616Z,85.24
2018-11-27T00:48:58.519Z,85.48
2018-11-27T00:49:58.425Z,85.27
2018-11-27T00:50:58.722Z,86.00
2018-11-27T00:51:58.547Z,86.22
2018-11-27T00:52:58.448Z,86.32
2018-11-27T00:53:58.366Z,86.32
2018-11-27T00:54:59.658Z,86.32
2018-11-27T00:55:58.487Z,85.06
2018-11-27T00:56:58.693Z,85.27
2018-11-27T00:57:58.301Z,85.27
2018-11-27T01:00:11.612Z,86.32
2018-11-27T01:01:09.659Z,85.48
2018-11-27T01:02:09.879Z,86.32
2018-11-27T01:03:09.737Z,86.32
2018-11-27T01:04:09.651Z,86.32
2018-11-27T01:05:09.619Z,86.11
2018-11-27T01:06:09.655Z,86.32
2018-11-27T01:07:09.450Z,85.59
2018-11-27T01:08:09.680Z,85.80
2018-11-27T01:09:09.520Z,86.32
2018-11-27T01:10:09.428Z,85.27
2018-11-27T01:11:09.671Z,85.52
2018-11-27T01:12:09.547Z,85.59
2018-11-27T01:13:09.454Z,85.63
2018-11-27T01:15:32.667Z,86.36
2018-11-27T01:16:31.624Z,85.31
2018-11-27T01:17:31.668Z,86.46
2018-11-27T01:18:31.673Z,85.42
2018-11-27T01:19:31.625Z,86.05
2018-11-27T01:20:31.521Z,85.83
2018-11-27T01:21:32.044Z,85.73
2018-11-27T01:22:31.669Z,85.83
2018-11-27T01:23:31.756Z,85.83
2018-11-27T01:24:31.683Z,86.15
2018-11-27T01:25:31.666Z,86.25
2018-11-27T01:26:31.680Z,86.15
2018-11-27T01:27:31.477Z,86.46
2018-11-27T01:28:31.994Z,86.15
2018-11-27T01:30:41.827Z,85.83
2018-11-27T01:31:41.730Z,85.73
2018-11-27T01:32:41.732Z,86.05
2018-11-27T01:33:41.727Z,86.25
2018-11-27T01:34:41.731Z,86.15
2018-11-27T01:35:41.732Z,86.36
2018-11-27T01:36:41.786Z,86.68
2018-11-27T01:37:41.744Z,86.25
2018-11-27T01:38:41.749Z,86.36
2018-11-27T01:39:41.741Z,86.05
2018-11-27T01:40:41.605Z,86.25
2018-11-27T01:41:41.529Z,85.73
2018-11-27T01:42:42.369Z,86.15
2018-11-27T01:43:41.653Z,86.05
2018-11-27T01:46:03.566Z,86.36
2018-11-27T01:47:03.162Z,86.05
2018-11-27T01:48:03.060Z,86.15
2018-11-27T01:49:02.876Z,86.15
2018-11-27T01:50:02.856Z,85.94
2018-11-27T01:51:03.127Z,86.36
2018-11-27T01:52:02.948Z,86.36
2018-11-27T01:53:02.815Z,86.05
2018-11-27T01:54:03.104Z,85.73
2018-11-27T01:55:03.003Z,85.83
2018-11-27T01:56:02.801Z,85.10
2018-11-27T01:57:02.776Z,87.20
2018-11-27T01:58:03.645Z,86.57
2018-11-27T01:59:02.754Z,86.25
2018-11-27T02:01:13.508Z,86.05
2018-11-27T02:02:13.089Z,86.00
2018-11-27T02:03:12.816Z,85.73
2018-11-27T02:04:12.840Z,86.05
2018-11-27T02:05:12.806Z,85.94
2018-11-27T02:06:12.808Z,86.25
2018-11-27T02:07:12.876Z,85.31
2018-11-27T02:08:12.784Z,85.42
2018-11-27T02:09:13.036Z,85.73
2018-11-27T02:10:12.752Z,85.42
2018-11-27T02:11:12.727Z,85.52
2018-11-27T02:12:12.752Z,85.35
2018-11-27T02:13:12.870Z,86.29
2018-11-27T02:14:12.738Z,86.08
2018-11-27T02:16:24.775Z,86.15
2018-11-27T02:17:24.561Z,86.05
2018-11-27T02:18:24.728Z,85.52
2018-11-27T02:19:24.728Z,86.29
2018-11-27T02:20:24.796Z,86.36
2018-11-27T02:21:24.495Z,85.31
2018-11-27T02:22:24.717Z,86.40
2018-11-27T02:23:24.619Z,85.98
2018-11-27T02:24:24.520Z,86.05
2018-11-27T02:25:24.737Z,86.19
2018-11-27T02:26:24.847Z,86.40
2018-11-27T02:27:24.542Z,85.77
2018-11-27T02:28:24.457Z,86.40
2018-11-27T02:29:24.666Z,86.08
2018-11-27T02:31:58.779Z,86.61
2018-11-27T02:32:58.754Z,86.29
2018-11-27T02:33:58.687Z,86.15
2018-11-27T02:34:58.773Z,85.94
2018-11-27T02:35:58.751Z,86.19
2018-11-27T02:36:58.708Z,86.19
2018-11-27T02:37:58.796Z,86.40
2018-11-27T02:38:59.135Z,86.40
2018-11-27T02:39:58.980Z,85.88
2018-11-27T02:40:58.646Z,85.88
2018-11-27T02:41:58.754Z,86.92
2018-11-27T02:42:58.754Z,86.19
2018-11-27T02:43:58.781Z,85.98
2018-11-27T02:44:58.585Z,86.08
2018-11-27T02:47:09.810Z,85.88
2018-11-27T02:48:09.764Z,86.61
2018-11-27T02:49:10.777Z,86.61
2018-11-27T02:50:09.869Z,85.77
2018-11-27T02:51:09.661Z,85.88
2018-11-27T02:52:09.857Z,86.61
2018-11-27T02:53:09.781Z,86.40
2018-11-27T02:54:09.771Z,85.66
2018-11-27T02:55:10.208Z,85.77
2018-11-27T02:56:09.814Z,85.88
2018-11-27T02:57:09.757Z,85.98
2018-11-27T02:58:09.624Z,86.40
2018-11-27T02:59:09.532Z,85.98
2018-11-27T03:01:31.137Z,86.29
2018-11-27T03:02:30.736Z,85.60
2018-11-27T03:03:30.806Z,85.25
2018-11-27T03:04:30.806Z,86.29
2018-11-27T03:05:30.753Z,86.40
2018-11-27T03:06:30.782Z,85.56
2018-11-27T03:07:30.837Z,86.19
2018-11-27T03:08:30.775Z,86.19
2018-11-27T03:09:30.679Z,85.98
2018-11-27T03:10:30.791Z,85.77
2018-11-27T03:11:30.795Z,85.71
2018-11-27T03:12:30.704Z,86.02
2018-11-27T03:13:30.765Z,86.19
2018-11-27T03:14:30.817Z,86.08
2018-11-27T03:16:42.312Z,86.02
2018-11-27T03:17:40.674Z,86.19
2018-11-27T03:18:40.798Z,85.98
2018-11-27T03:19:40.790Z,86.19
2018-11-27T03:20:40.693Z,86.40
2018-11-27T03:21:40.842Z,86.23
2018-11-27T03:22:41.119Z,85.88
2018-11-27T03:23:40.716Z,86.02
2018-11-27T03:24:40.621Z,86.44
2018-11-27T03:25:40.795Z,85.46
2018-11-27T03:26:40.742Z,85.25
2018-11-27T03:27:40.741Z,86.76
2018-11-27T03:28:40.857Z,86.40
2018-11-27T03:29:40.889Z,86.08
2018-11-27T03:31:51.636Z,86.40
2018-11-27T03:32:51.810Z,86.23
2018-11-27T03:33:51.461Z,86.08
2018-11-27T03:34:51.025Z,86.29
2018-11-27T03:35:50.948Z,86.08
2018-11-27T03:36:51.251Z,85.77
2018-11-27T03:37:51.676Z,86.19
2018-11-27T03:38:51.288Z,86.40
2018-11-27T03:39:51.526Z,86.51
2018-11-27T03:40:50.897Z,86.71
2018-11-27T03:41:50.905Z,85.18
2018-11-27T03:42:50.873Z,85.35
2018-11-27T03:43:51.427Z,85.46
2018-11-27T03:44:51.005Z,86.19
2018-11-27T03:47:01.594Z,85.18
2018-11-27T03:48:01.228Z,85.81
2018-11-27T03:49:00.920Z,86.02
2018-11-27T03:50:00.899Z,85.81
2018-11-27T03:51:01.533Z,85.49
2018-11-27T03:52:00.907Z,85.71
2018-11-27T03:53:01.041Z,85.71
2018-11-27T03:54:01.225Z,85.39
2018-11-27T03:55:01.133Z,86.65
2018-11-27T03:56:00.843Z,85.18
2018-11-27T03:57:02.174Z,85.71
2018-11-27T03:58:00.845Z,85.71
2018-11-27T03:59:00.842Z,85.28
2018-11-27T04:00:00.834Z,85.71
2018-11-27T04:02:13.855Z,85.60
2018-11-27T04:03:12.670Z,85.91
2018-11-27T04:04:13.169Z,85.91
2018-11-27T04:05:12.834Z,85.60
2018-11-27T04:06:12.678Z,85.91
2018-11-27T04:07:12.581Z,85.81
2018-11-27T04:08:12.791Z,85.60
2018-11-27T04:09:12.696Z,85.81
2018-11-27T04:10:12.895Z,85.81
2018-11-27T04:11:12.824Z,85.49
2018-11-27T04:12:12.769Z,85.81
2018-11-27T04:13:12.631Z,85.49
2018-11-27T04:14:12.541Z,85.71
2018-11-27T04:15:12.880Z,86.44
2018-11-27T04:17:24.844Z,86.23
2018-11-27T04:18:23.517Z,86.23
2018-11-27T04:19:23.473Z,86.23
2018-11-27T04:20:23.326Z,85.60
2018-11-27T04:21:23.858Z,86.02
2018-11-27T04:22:23.451Z,86.27
2018-11-27T04:23:23.350Z,86.44
2018-11-27T04:24:23.860Z,85.32
2018-11-27T04:25:23.821Z,85.42
2018-11-27T04:26:23.873Z,85.74
2018-11-27T04:27:23.910Z,85.64
2018-11-27T04:28:23.182Z,85.49
2018-11-27T04:29:23.399Z,86.16
2018-11-27T04:30:23.874Z,85.95
2018-11-27T04:31:23.208Z,85.81
2018-11-27T04:33:34.973Z,86.37
2018-11-27T04:34:34.894Z,85.39
2018-11-27T04:35:34.799Z,86.47
2018-11-27T04:36:34.709Z,85.28
2018-11-27T04:37:34.884Z,85.71
2018-11-27T04:38:34.836Z,86.54
2018-11-27T04:39:34.869Z,85.53
2018-11-27T04:40:34.874Z,85.95
2018-11-27T04:41:34.846Z,86.06
2018-11-27T04:42:34.753Z,85.71
2018-11-27T04:43:34.673Z,85.53
2018-11-27T04:44:34.877Z,85.53
2018-11-27T04:45:34.885Z,85.85
2018-11-27T04:46:34.687Z,85.85
2018-11-27T04:48:56.890Z,85.85
2018-11-27T04:49:56.198Z,85.53
2018-11-27T04:50:56.718Z,85.53
2018-11-27T04:51:55.924Z,85.85
2018-11-27T04:52:56.228Z,85.85
2018-11-27T04:53:55.926Z,85.95
2018-11-27T04:54:56.645Z,85.74
2018-11-27T04:55:55.887Z,86.06
2018-11-27T04:56:56.463Z,85.25
2018-11-27T04:57:55.963Z,86.27
2018-11-27T04:58:55.894Z,85.78
2018-11-27T04:59:55.878Z,85.95
2018-11-27T05:00:55.986Z,85.74
2018-11-27T05:01:55.905Z,85.85
2018-11-27T05:04:06.904Z,85.85
2018-11-27T05:05:05.835Z,85.64
2018-11-27T05:06:05.909Z,85.53
2018-11-27T05:07:05.902Z,85.53
2018-11-27T05:08:05.866Z,85.53
2018-11-27T05:09:05.946Z,85.64
2018-11-27T05:10:06.599Z,85.42
2018-11-27T05:11:05.975Z,86.30
2018-11-27T05:12:05.796Z,86.06
2018-11-27T05:13:05.772Z,86.27
2018-11-27T05:14:05.915Z,86.47
2018-11-27T05:15:05.822Z,86.27
2018-11-27T05:16:05.770Z,86.27
2018-11-27T05:17:06.855Z,86.27
2018-11-27T05:19:17.822Z,86.06
2018-11-27T05:20:17.346Z,85.53
2018-11-27T05:21:17.069Z,85.53
2018-11-27T05:22:17.051Z,86.16
2018-11-27T05:23:17.029Z,85.64
2018-11-27T05:24:17.248Z,86.47
2018-11-27T05:25:17.838Z,86.06
2018-11-27T05:26:17.019Z,85.74
2018-11-27T05:27:17.275Z,85.85
2018-11-27T05:28:17.122Z,85.64
2018-11-27T05:29:16.966Z,85.53
2018-11-27T05:30:16.948Z,85.53
2018-11-27T05:31:17.203Z,85.99
2018-11-27T05:32:17.037Z,86.06
2018-11-27T05:34:27.674Z,85.53
2018-11-27T05:35:26.922Z,86.10
2018-11-27T05:36:26.867Z,85.42
2018-11-27T05:37:26.933Z,85.99
2018-11-27T05:38:27.279Z,85.85
2018-11-27T05:39:26.888Z,85.89
2018-11-27T05:40:26.776Z,85.95
2018-11-27T05:41:26.942Z,85.64
2018-11-27T05:42:26.907Z,85.85
2018-11-27T05:43:26.837Z,85.74
2018-11-27T05:44:27.945Z,85.74
2018-11-27T05:45:26.955Z,85.64
2018-11-27T05:46:26.831Z,85.99
2018-11-27T05:47:26.963Z,85.89
2018-11-27T05:49:49.594Z,85.57
2018-11-27T05:50:48.886Z,85.89
2018-11-27T05:51:48.944Z,85.68
2018-11-27T05:52:48.950Z,86.06
2018-11-27T05:53:48.892Z,86.06
2018-11-27T05:54:48.946Z,85.53
2018-11-27T05:55:48.983Z,85.22
2018-11-27T05:56:48.920Z,85.57
2018-11-27T05:57:48.820Z,85.89
2018-11-27T05:58:48.960Z,86.06
2018-11-27T05:59:48.962Z,85.11
2018-11-27T06:00:48.867Z,85.78
2018-11-27T06:01:48.999Z,85.53
2018-11-27T06:02:48.976Z,85.68
2018-11-27T06:05:00.025Z,85.85
2018-11-27T06:05:59.760Z,85.68
2018-11-27T06:06:59.643Z,86.06
2018-11-27T06:07:59.864Z,86.06
2018-11-27T06:08:59.447Z,85.99
2018-11-27T06:10:00.584Z,85.89
2018-11-27T06:11:00.692Z,85.22
2018-11-27T06:11:59.468Z,84.91
2018-11-27T06:13:00.003Z,85.53
2018-11-27T06:13:59.590Z,85.36
2018-11-27T06:14:59.518Z,85.11
2018-11-27T06:16:00.704Z,84.69
2018-11-27T06:16:59.976Z,84.94
2018-11-27T06:17:59.529Z,84.69
2018-11-27T06:20:32.974Z,83.96
2018-11-27T06:21:32.414Z,84.27
2018-11-27T06:22:32.327Z,84.38
2018-11-27T06:23:32.126Z,84.59
2018-11-27T06:24:32.450Z,84.27
2018-11-27T06:25:32.356Z,83.86
2018-11-27T06:26:33.015Z,84.03
2018-11-27T06:27:32.077Z,84.06
2018-11-27T06:28:32.361Z,83.44
2018-11-27T06:29:32.066Z,83.40
2018-11-27T06:30:32.079Z,83.08
2018-11-27T06:31:32.087Z,83.29
2018-11-27T06:32:32.195Z,83.40
2018-11-27T06:33:32.049Z,83.08
2018-11-27T06:35:55.977Z,82.73
2018-11-27T06:36:55.066Z,82.42
2018-11-27T06:37:55.018Z,82.56
2018-11-27T06:38:55.135Z,82.52
2018-11-27T06:39:54.994Z,82.20
2018-11-27T06:40:55.002Z,82.20
2018-11-27T06:41:55.495Z,82.35
2018-11-27T06:42:55.011Z,81.99
2018-11-27T06:43:55.008Z,81.89
2018-11-27T06:44:55.026Z,81.68
2018-11-27T06:45:55.010Z,81.79
2018-11-27T06:46:54.920Z,81.79
2018-11-27T06:47:55.039Z,81.37
2018-11-27T06:48:54.736Z,81.37
2018-11-27T06:51:06.027Z,81.89
2018-11-27T06:52:05.501Z,80.63
2018-11-27T06:53:05.023Z,80.84
2018-11-27T06:54:05.036Z,80.70
2018-11-27T06:55:06.032Z,80.70
2018-11-27T06:56:05.086Z,80.28
2018-11-27T06:57:05.023Z,79.75
2018-11-27T06:58:04.929Z,80.07
2018-11-27T06:59:05.031Z,79.86
2018-11-27T07:00:05.700Z,80.18
2018-11-27T07:01:06.114Z,79.44
2018-11-27T07:02:04.860Z,80.60
2018-11-27T07:03:05.033Z,80.04
2018-11-27T07:04:05.032Z,79.23
2018-11-27T07:06:26.112Z,78.88
2018-11-27T07:07:26.060Z,78.67
2018-11-27T07:08:26.024Z,78.67
2018-11-27T07:09:26.034Z,78.67
2018-11-27T07:10:26.030Z,78.25
2018-11-27T07:11:26.031Z,78.57
2018-11-27T07:12:26.049Z,78.36
2018-11-27T07:13:26.065Z,78.05
2018-11-27T07:14:26.399Z,77.94
2018-11-27T07:15:26.035Z,78.25
2018-11-27T07:16:25.955Z,78.22
2018-11-27T07:17:25.863Z,77.69
2018-11-27T07:18:26.696Z,77.48
2018-11-27T07:19:25.976Z,77.17
2018-11-27T07:21:37.076Z,77.59
2018-11-27T07:22:37.052Z,77.28
2018-11-27T07:23:36.961Z,77.48
2018-11-27T07:24:37.061Z,77.69
2018-11-27T07:25:37.076Z,77.48
2018-11-27T07:26:36.985Z,76.86
2018-11-27T07:27:37.076Z,76.86
2018-11-27T07:28:36.792Z,76.82
2018-11-27T07:29:37.007Z,77.07
2018-11-27T07:30:37.050Z,76.96
2018-11-27T07:31:36.815Z,76.33
2018-11-27T07:32:36.718Z,76.20
2018-11-27T07:33:37.093Z,76.40
2018-11-27T07:34:36.868Z,75.88
2018-11-27T07:36:51.132Z,75.67
2018-11-27T07:37:50.109Z,76.20
2018-11-27T07:38:50.065Z,76.06
2018-11-27T07:39:49.879Z,75.98
2018-11-27T07:40:50.079Z,76.06
2018-11-27T07:41:49.988Z,75.74
2018-11-27T07:42:50.072Z,75.84
2018-11-27T07:43:49.807Z,76.16
2018-11-27T07:44:50.021Z,74.27
2018-11-27T07:45:55.046Z,74.35
2018-11-27T07:46:50.788Z,74.59
2018-11-27T07:47:50.043Z,74.14
2018-11-27T07:48:50.118Z,74.14
2018-11-27T07:49:49.851Z,73.82
2018-11-27T07:52:02.124Z,72.96
2018-11-27T07:53:01.867Z,73.37
2018-11-27T07:54:02.379Z,72.75
2018-11-27T07:55:02.078Z,72.33
2018-11-27T07:56:02.075Z,72.64
2018-11-27T07:57:02.083Z,72.19
2018-11-27T07:58:02.070Z,72.43
2018-11-27T07:59:01.915Z,72.61
2018-11-27T08:00:02.421Z,72.30
2018-11-27T08:01:02.042Z,72.30
2018-11-27T08:02:01.927Z,71.77
2018-11-27T08:03:01.842Z,71.74
2018-11-27T08:04:02.102Z,70.90
2018-11-27T08:05:01.958Z,71.84
2018-11-27T08:07:14.966Z,71.74
2018-11-27T08:08:14.572Z,71.95
2018-11-27T08:09:14.788Z,71.64
2018-11-27T08:10:14.276Z,71.64
2018-11-27T08:11:14.268Z,70.80
2018-11-27T08:12:14.496Z,70.80
2018-11-27T08:13:15.591Z,70.07
2018-11-27T08:14:14.273Z,69.86
2018-11-27T08:15:14.526Z,70.90
2018-11-27T08:16:14.719Z,70.90
2018-11-27T08:17:14.209Z,71.01
2018-11-27T08:18:14.193Z,71.22
2018-11-27T08:19:14.765Z,70.87
2018-11-27T08:20:14.176Z,70.45
2018-11-27T08:22:36.190Z,70.25
2018-11-27T08:23:38.158Z,70.25
2018-11-27T08:24:36.391Z,70.45
2018-11-27T08:25:35.991Z,69.93
2018-11-27T08:26:35.901Z,69.31
2018-11-27T08:27:36.095Z,69.59
2018-11-27T08:28:35.748Z,69.90
2018-11-27T08:29:36.121Z,69.10
2018-11-27T08:30:35.821Z,68.75
2018-11-27T08:31:35.746Z,68.99
2018-11-27T08:32:35.631Z,68.16
2018-11-27T08:33:35.849Z,70.04
2018-11-27T08:34:35.751Z,69.51
2018-11-27T08:35:36.269Z,69.10
2018-11-27T08:38:09.949Z,69.41
2018-11-27T08:39:09.460Z,70.45
2018-11-27T08:40:10.025Z,69.79
2018-11-27T08:41:09.577Z,68.16
2018-11-27T08:42:09.789Z,68.57
2018-11-27T08:43:09.378Z,68.05
2018-11-27T08:44:09.910Z,69.27
2018-11-27T08:45:09.506Z,69.03
2018-11-27T08:46:09.314Z,69.38
2018-11-27T08:47:09.626Z,68.20
2018-11-27T08:48:09.524Z,67.71
2018-11-27T08:49:09.431Z,67.88
2018-11-27T08:50:09.951Z,68.13
2018-11-27T08:51:09.627Z,68.20
2018-11-27T08:53:31.162Z,68.30
2018-11-27T08:54:31.072Z,67.96
2018-11-27T08:55:31.896Z,68.17
2018-11-27T08:56:30.883Z,67.78
2018-11-27T08:57:31.094Z,68.62
2018-11-27T08:58:31.000Z,68.38
2018-11-27T08:59:30.916Z,68.17
2018-11-27T09:00:31.142Z,68.27
2018-11-27T09:01:31.153Z,67.75
2018-11-27T09:02:30.942Z,68.27
2018-11-27T09:03:31.171Z,68.69
2018-11-27T09:04:31.051Z,68.07
2018-11-27T09:05:31.174Z,68.24
2018-11-27T09:06:30.878Z,68.59
2018-11-27T09:08:44.039Z,67.75
2018-11-27T09:09:43.151Z,67.20
2018-11-27T09:10:42.764Z,67.30
2018-11-27T09:11:43.149Z,66.57
2018-11-27T09:12:42.595Z,67.44
2018-11-27T09:13:43.184Z,67.30
2018-11-27T09:14:43.279Z,67.02
2018-11-27T09:15:42.905Z,67.65
2018-11-27T09:16:42.833Z,67.88
2018-11-27T09:17:42.731Z,68.10
2018-11-27T09:18:42.946Z,68.30
2018-11-27T09:19:42.537Z,68.59
2018-11-27T09:20:43.057Z,68.07
2018-11-27T09:21:42.654Z,67.44
2018-11-27T09:24:06.118Z,67.10
2018-11-27T09:25:05.348Z,67.10
2018-11-27T09:26:05.619Z,66.78
2018-11-27T09:27:05.524Z,66.36
2018-11-27T09:28:05.326Z,66.89
2018-11-27T09:29:05.636Z,66.13
2018-11-27T09:30:06.469Z,65.50
2018-11-27T09:31:05.406Z,64.98
2018-11-27T09:32:05.704Z,64.77
2018-11-27T09:33:05.231Z,64.53
2018-11-27T09:34:05.228Z,65.19
2018-11-27T09:35:05.205Z,64.12
2018-11-27T09:36:06.566Z,64.22
2018-11-27T09:37:05.201Z,64.53
2018-11-27T09:39:17.899Z,64.53
2018-11-27T09:40:17.795Z,64.82
2018-11-27T09:41:18.294Z,64.92
2018-11-27T09:42:17.610Z,64.72
2018-11-27T09:43:17.514Z,64.61
2018-11-27T09:44:17.412Z,64.61
2018-11-27T09:45:17.628Z,63.70
2018-11-27T09:46:18.782Z,63.36
2018-11-27T09:47:18.265Z,63.78
2018-11-27T09:48:18.195Z,63.05
2018-11-27T09:49:17.862Z,63.46
2018-11-27T09:50:17.445Z,62.63
2018-11-27T09:51:17.346Z,63.60
2018-11-27T09:52:18.501Z,63.91
2018-11-27T09:54:30.900Z,62.53
2018-11-27T09:55:30.850Z,61.80
2018-11-27T09:56:31.025Z,61.49
2018-11-27T09:57:30.927Z,60.14
2018-11-27T09:58:30.586Z,60.58
2018-11-27T09:59:30.730Z,60.86
2018-11-27T10:00:30.635Z,61.72
2018-11-27T10:01:30.705Z,61.80
2018-11-27T10:02:31.324Z,63.26
2018-11-27T10:03:30.966Z,62.95
2018-11-27T10:04:30.573Z,63.70
2018-11-27T10:05:30.380Z,63.81
2018-11-27T10:06:30.366Z,63.91
2018-11-27T10:07:30.911Z,63.81
2018-11-27T10:10:14.302Z,64.09
2018-11-27T10:11:14.246Z,63.60
2018-11-27T10:12:14.139Z,62.90
2018-11-27T10:13:14.290Z,64.04
2018-11-27T10:14:14.209Z,63.21
2018-11-27T10:15:14.216Z,62.79
2018-11-27T10:16:14.692Z,61.96
2018-11-27T10:17:14.222Z,62.38
2018-11-27T10:18:14.229Z,62.14
2018-11-27T10:19:14.098Z,61.90
2018-11-27T10:20:14.002Z,61.31
2018-11-27T10:21:15.230Z,61.21
2018-11-27T10:22:14.342Z,60.76
2018-11-27T10:24:26.060Z,61.07
2018-11-27T10:25:25.350Z,60.24
2018-11-27T10:26:26.021Z,59.82
2018-11-27T10:27:25.626Z,60.14
2018-11-27T10:28:25.405Z,59.93
2018-11-27T10:29:25.322Z,60.45
2018-11-27T10:30:26.259Z,60.66
2018-11-27T10:31:25.575Z,61.18
2018-11-27T10:32:25.460Z,60.45
2018-11-27T10:33:25.331Z,60.55
2018-11-27T10:34:25.568Z,60.24
2018-11-27T10:35:25.296Z,61.49
2018-11-27T10:36:26.246Z,60.14
2018-11-27T10:37:25.287Z,60.73
2018-11-27T10:39:38.243Z,59.28
2018-11-27T10:40:36.675Z,59.90
2018-11-27T10:41:36.584Z,61.04
2018-11-27T10:42:36.857Z,61.04
2018-11-27T10:43:36.708Z,61.15
2018-11-27T10:44:36.607Z,62.50
2018-11-27T10:45:37.131Z,62.40
2018-11-27T10:46:36.725Z,61.12
2018-11-27T10:47:36.650Z,60.50
2018-11-27T10:48:36.533Z,59.88
2018-11-27T10:49:36.751Z,58.83
2018-11-27T10:50:36.972Z,57.90
2018-11-27T10:51:37.362Z,58.42
2018-11-27T10:52:36.403Z,58.65
2018-11-27T10:55:01.153Z,59.30
2018-11-27T10:55:59.372Z,58.86
2018-11-27T10:56:59.375Z,59.28
2018-11-27T10:57:59.677Z,59.35
2018-11-27T10:58:59.346Z,59.14
2018-11-27T10:59:59.327Z,58.94
2018-11-27T11:00:59.968Z,58.94
2018-11-27T11:01:59.397Z,59.25
2018-11-27T11:02:59.306Z,59.04
2018-11-27T11:03:59.285Z,59.25
2018-11-27T11:04:59.278Z,59.25
2018-11-27T11:05:59.263Z,60.00
2018-11-27T11:07:00.329Z,59.88
2018-11-27T11:07:59.252Z,59.56
2018-11-27T11:10:11.341Z,60.08
2018-11-27T11:11:10.692Z,60.00
2018-11-27T11:12:10.605Z,60.31
2018-11-27T11:13:10.797Z,61.18
2018-11-27T11:14:10.718Z,61.80
2018-11-27T11:15:10.619Z,62.01
2018-11-27T11:16:11.174Z,62.32
2018-11-27T11:17:10.745Z,62.08
2018-11-27T11:18:10.648Z,60.63
2018-11-27T11:19:10.467Z,60.52
2018-11-27T11:20:10.762Z,60.83
2018-11-27T11:21:10.664Z,60.73
2018-11-27T11:22:12.279Z,61.15
2018-11-27T11:23:10.534Z,61.57
2018-11-27T11:25:34.368Z,61.04
2018-11-27T11:26:34.142Z,59.98
2018-11-27T11:27:34.296Z,59.98
2018-11-27T11:28:34.288Z,58.86
2018-11-27T11:29:34.291Z,59.07
2018-11-27T11:30:34.074Z,59.82
2018-11-27T11:31:33.974Z,61.18
2018-11-27T11:32:34.294Z,61.69
2018-11-27T11:33:34.092Z,60.45
2018-11-27T11:34:34.004Z,59.30
2018-11-27T11:35:34.292Z,59.17
2018-11-27T11:36:34.126Z,59.17
2018-11-27T11:37:34.026Z,59.17
2018-11-27T11:38:33.934Z,58.94
2018-11-27T11:40:46.024Z,59.17
2018-11-27T11:41:45.308Z,58.97
2018-11-27T11:42:45.288Z,58.86
2018-11-27T11:43:45.297Z,59.48
2018-11-27T11:44:45.299Z,59.77
2018-11-27T11:45:46.072Z,58.52
2018-11-27T11:46:45.188Z,59.04
2018-11-27T11:47:45.313Z,59.45
2018-11-27T11:48:45.305Z,59.45
2018-11-27T11:49:45.223Z,59.56
2018-11-27T11:50:46.317Z,59.22
2018-11-27T11:51:46.212Z,58.73
2018-11-27T11:52:45.453Z,59.45
2018-11-27T11:53:45.096Z,58.62
2018-11-27T11:55:57.196Z,59.82
2018-11-27T11:56:57.402Z,60.00
2018-11-27T11:57:56.702Z,60.55
2018-11-27T11:58:56.590Z,60.97
2018-11-27T11:59:56.821Z,61.49
2018-11-27T12:00:56.734Z,61.28
2018-11-27T12:01:56.539Z,61.15
2018-11-27T12:02:57.409Z,61.59
2018-11-27T12:03:57.056Z,62.08
2018-11-27T12:04:56.966Z,62.19
2018-11-27T12:05:56.502Z,62.08
2018-11-27T12:06:56.767Z,61.98
2018-11-27T12:07:56.675Z,63.02
2018-11-27T12:08:57.229Z,63.02
2018-11-27T12:09:56.460Z,63.02
2018-11-27T12:12:20.335Z,63.64
2018-11-27T12:13:19.980Z,63.85
2018-11-27T12:14:20.442Z,64.37
2018-11-27T12:15:19.656Z,64.37
2018-11-27T12:16:19.369Z,64.17
2018-11-27T12:17:19.349Z,64.37
2018-11-27T12:18:19.334Z,64.89
2018-11-27T12:19:19.338Z,64.55
2018-11-27T12:20:19.488Z,64.58
2018-11-27T12:21:19.337Z,65.07
2018-11-27T12:22:19.307Z,65.13
2018-11-27T12:23:19.336Z,66.17
2018-11-27T12:24:19.344Z,65.55
2018-11-27T12:26:32.351Z,65.31
2018-11-27T12:27:31.775Z,65.31
2018-11-27T12:28:31.455Z,65.62
2018-11-27T12:29:31.456Z,65.41
2018-11-27T12:30:32.104Z,65.83
2018-11-27T12:31:31.649Z,65.31
2018-11-27T12:32:32.173Z,65.55
2018-11-27T12:33:31.406Z,65.86
2018-11-27T12:34:31.704Z,66.06
2018-11-27T12:35:31.392Z,66.03
2018-11-27T12:36:31.398Z,65.41
2018-11-27T12:37:31.371Z,65.23
2018-11-27T12:38:32.537Z,65.10
2018-11-27T12:39:31.372Z,65.10
2018-11-27T12:41:45.363Z,64.69
2018-11-27T12:42:45.352Z,64.37
2018-11-27T12:43:45.379Z,64.48
2018-11-27T12:44:44.868Z,63.64
2018-11-27T12:45:44.781Z,63.64
2018-11-27T12:46:44.607Z,64.06
2018-11-27T12:47:45.192Z,64.17
2018-11-27T12:48:45.092Z,64.79
2018-11-27T12:49:45.374Z,64.89
2018-11-27T12:50:44.567Z,64.06
2018-11-27T12:51:45.373Z,63.96
2018-11-27T12:52:45.112Z,64.37
2018-11-27T12:53:45.401Z,64.27
2018-11-27T12:54:44.835Z,64.37
2018-11-27T12:56:56.922Z,63.96
2018-11-27T12:57:56.390Z,63.54
2018-11-27T12:58:56.375Z,63.64
2018-11-27T12:59:56.644Z,63.64
2018-11-27T13:00:56.416Z,63.43
2018-11-27T13:01:56.391Z,63.75
2018-11-27T13:02:56.536Z,62.71
2018-11-27T13:03:56.575Z,62.32
2018-11-27T13:04:56.390Z,62.53
2018-11-27T13:05:56.384Z,63.05
2018-11-27T13:06:56.405Z,63.05
2018-11-27T13:07:56.437Z,62.95
2018-11-27T13:08:56.397Z,62.53
2018-11-27T13:09:56.623Z,62.43
2018-11-27T13:10:56.420Z,62.74
2018-11-27T13:13:08.506Z,63.46
2018-11-27T13:14:08.393Z,64.19
2018-11-27T13:15:09.689Z,63.78
2018-11-27T13:16:08.400Z,64.09
2018-11-27T13:17:08.471Z,64.29
2018-11-27T13:18:08.407Z,64.51
2018-11-27T13:19:08.358Z,64.29
2018-11-27T13:20:08.397Z,64.61
2018-11-27T13:21:08.778Z,64.40
2018-11-27T13:22:08.433Z,64.51
2018-11-27T13:23:08.288Z,63.81
2018-11-27T13:24:08.413Z,64.29
2018-11-27T13:25:08.419Z,64.75
2018-11-27T13:26:08.311Z,64.64
2018-11-27T13:28:22.458Z,65.26
2018-11-27T13:29:22.415Z,64.64
2018-11-27T13:30:21.878Z,64.72
2018-11-27T13:31:21.957Z,64.92
2018-11-27T13:32:22.409Z,64.40
2018-11-27T13:33:22.082Z,65.86
2018-11-27T13:34:21.635Z,64.51
2018-11-27T13:35:21.985Z,64.29
2018-11-27T13:36:21.796Z,63.98
2018-11-27T13:37:21.601Z,63.88
2018-11-27T13:38:22.220Z,63.78
2018-11-27T13:39:21.869Z,63.05
2018-11-27T13:40:21.581Z,62.66
2018-11-27T13:41:21.553Z,63.15
2018-11-27T13:43:33.425Z,63.60
2018-11-27T13:44:32.701Z,64.32
2018-11-27T13:45:32.912Z,64.01
2018-11-27T13:46:32.823Z,64.01
2018-11-27T13:47:32.665Z,64.32
2018-11-27T13:48:32.936Z,63.60
2018-11-27T13:49:33.151Z,63.91
2018-11-27T13:50:32.794Z,64.12
2018-11-27T13:51:32.632Z,63.88
2018-11-27T13:52:32.906Z,63.29
2018-11-27T13:53:32.797Z,63.39
2018-11-27T13:54:32.592Z,63.81
2018-11-27T13:55:33.196Z,63.98
2018-11-27T13:56:32.814Z,63.57
2018-11-27T13:58:45.255Z,63.60
2018-11-27T13:59:45.178Z,63.70
2018-11-27T14:00:45.075Z,64.01
2018-11-27T14:01:46.283Z,63.91